createdAt,value
2022-09-03T00:00:11.269Z,99496.16
2022-09-03T00:01:13.393Z,99499.35
2022-09-03T00:01:55.357Z,99495.33
2022-09-03T00:02:46.349Z,99495.36
2022-09-03T00:03:34.983Z,99496.25
2022-09-03T00:04:20.684Z,99497.23
2022-09-03T00:05:17.486Z,99494.07
2022-09-03T00:06:06.720Z,99493.41
2022-09-03T00:06:49.813Z,99493.29
2022-09-03T00:07:53.322Z,99490.88
2022-09-03T00:08:44.721Z,99490.84
2022-09-03T00:09:29.004Z,99490.32
2022-09-03T00:10:12.155Z,99487.67
2022-09-03T00:10:59.946Z,99485.88
2022-09-03T00:12:06.365Z,99486.25
2022-09-03T00:12:45.199Z,99487.07
2022-09-03T00:13:26.219Z,99490.64
2022-09-03T00:14:20.125Z,99487.27
2022-09-03T00:15:15.432Z,99487.85
2022-09-03T00:15:51.365Z,99486.71
2022-09-03T00:16:30.298Z,99487.28
2022-09-03T00:17:12.450Z,99486.86
2022-09-03T00:18:01.175Z,99486.30
2022-09-03T00:18:36.331Z,99487.65
2022-09-03T00:19:12.032Z,99482.92
2022-09-03T00:20:00.732Z,99483.95
2022-09-03T00:20:47.586Z,99485.45
2022-09-03T00:21:36.084Z,99481.66
2022-09-03T00:22:19.870Z,99482.36
2022-09-03T00:22:55.636Z,99482.20
2022-09-03T00:23:31.633Z,99477.52
2022-09-03T00:24:08.005Z,99478.70
2022-09-03T00:24:50.541Z,99477.05
2022-09-03T00:25:38.804Z,99474.91
2022-09-03T00:26:12.489Z,99472.23
2022-09-03T00:26:52.317Z,99474.15
2022-09-03T00:27:28.502Z,99475.48
2022-09-03T00:28:05.903Z,99473.48
2022-09-03T00:29:04.146Z,99474.23
2022-09-03T00:29:43.750Z,99472.23
2022-09-03T00:30:18.221Z,99472.09
2022-09-03T00:31:11.491Z,99474.09
2022-09-03T00:31:49.264Z,99476.66
2022-09-03T00:32:38.304Z,99476.05
2022-09-03T00:33:19.173Z,99476.20
2022-09-03T00:33:53.495Z,99476.09
2022-09-03T00:34:29.464Z,99477.45
2022-09-03T00:35:06.691Z,99477.76
2022-09-03T00:36:05.439Z,99478.69
2022-09-03T00:36:46.096Z,99477.95
2022-09-03T00:37:19.162Z,99478.57
2022-09-03T00:37:53.809Z,99479.27
2022-09-03T00:38:28.650Z,99478.34
2022-09-03T00:39:01.847Z,99476.98
2022-09-03T00:39:37.174Z,99480.20
2022-09-03T00:40:35.812Z,99479.46
2022-09-03T00:41:17.392Z,99476.41
2022-09-03T00:42:07.002Z,99477.42
2022-09-03T00:42:56.995Z,99476.59
2022-09-03T00:43:35.886Z,99479.84
2022-09-03T00:44:19.934Z,99477.98
2022-09-03T00:45:16.138Z,99479.84
2022-09-03T00:46:19.857Z,99477.92
2022-09-03T00:47:13.874Z,99478.21
2022-09-03T00:47:56.807Z,99475.89
2022-09-03T00:48:44.980Z,99475.15
2022-09-03T00:49:43.017Z,99477.30
2022-09-03T00:50:37.124Z,99478.80
2022-09-03T00:51:17.563Z,99475.15
2022-09-03T00:52:05.841Z,99475.33
2022-09-03T00:53:23.512Z,99478.54
2022-09-03T00:54:35.826Z,99474.38
2022-09-03T00:55:25.289Z,99469.19
2022-09-03T00:56:10.753Z,99470.02
2022-09-03T00:57:16.208Z,99471.35
2022-09-03T00:57:55.779Z,99470.56
2022-09-03T00:59:04.511Z,99469.23
2022-09-03T00:59:59.330Z,99470.00
2022-09-03T01:00:32.432Z,99464.99
2022-09-03T01:01:21.017Z,99464.13
2022-09-03T01:02:12.709Z,99462.11
2022-09-03T01:03:07.377Z,99463.98
2022-09-03T01:04:06.803Z,99463.94
2022-09-03T01:04:57.582Z,99461.32
2022-09-03T01:06:08.036Z,99461.27
2022-09-03T01:06:48.812Z,99461.46
2022-09-03T01:07:22.337Z,99460.55
2022-09-03T01:08:21.025Z,99458.48
2022-09-03T01:08:54.268Z,99455.73
2022-09-03T01:09:41.391Z,99456.02
2022-09-03T01:10:32.621Z,99456.17
2022-09-03T01:11:12.032Z,99456.98
2022-09-03T01:12:13.830Z,99457.78
2022-09-03T01:12:52.829Z,99457.11
2022-09-03T01:13:34.860Z,99457.73
2022-09-03T01:14:16.317Z,99455.66
2022-09-03T01:15:16.638Z,99456.04
2022-09-03T01:16:14.144Z,99453.80
2022-09-03T01:16:56.492Z,99455.61
2022-09-03T01:17:55.158Z,99457.93
2022-09-03T01:19:09.510Z,99460.41
2022-09-03T01:20:14.014Z,99460.61
2022-09-03T01:21:32.126Z,99464.76
2022-09-03T01:22:07.979Z,99467.76
2022-09-03T01:22:58.126Z,99467.14
2022-09-03T01:24:09.344Z,99470.60
2022-09-03T01:25:00.612Z,99469.46
2022-09-03T01:26:01.637Z,99470.52
2022-09-03T01:26:57.966Z,99471.15
2022-09-03T01:28:00.201Z,99467.08
2022-09-03T01:29:12.526Z,99471.17
2022-09-03T01:30:10.623Z,99472.39
2022-09-03T01:30:49.573Z,99471.81
2022-09-03T01:31:40.533Z,99469.72
2022-09-03T01:32:28.298Z,99468.48
2022-09-03T01:33:26.402Z,99469.79
2022-09-03T01:34:08.399Z,99470.52
2022-09-03T01:34:54.205Z,99472.14
2022-09-03T01:35:49.373Z,99469.83
2022-09-03T01:37:00.998Z,99466.09
2022-09-03T01:37:48.823Z,99467.83
2022-09-03T01:38:27.810Z,99468.60
2022-09-03T01:39:04.969Z,99470.27
2022-09-03T01:39:58.305Z,99468.36
2022-09-03T01:40:52.157Z,99468.98
2022-09-03T01:42:14.262Z,99469.77
2022-09-03T01:43:16.878Z,99469.35
2022-09-03T01:44:25.910Z,99469.84
2022-09-03T01:45:02.138Z,99467.46
2022-09-03T01:45:53.636Z,99468.77
2022-09-03T01:46:51.537Z,99469.88
2022-09-03T01:47:50.267Z,99469.63
2022-09-03T01:48:35.441Z,99473.10
2022-09-03T01:49:35.227Z,99469.68
2022-09-03T01:50:40.065Z,99472.12
2022-09-03T01:51:24.290Z,99469.52
2022-09-03T01:52:20.142Z,99468.70
2022-09-03T01:53:39.421Z,99474.84
2022-09-03T01:54:53.717Z,99472.20
2022-09-03T01:55:47.623Z,99470.09
2022-09-03T01:56:51.911Z,99468.94
2022-09-03T01:57:46.295Z,99469.77
2022-09-03T01:58:31.667Z,99468.41
2022-09-03T01:59:48.556Z,99466.34
2022-09-03T02:00:21.934Z,99465.56
2022-09-03T02:01:02.275Z,99464.83
2022-09-03T02:01:50.260Z,99464.79
2022-09-03T02:02:26.084Z,99464.73
2022-09-03T02:03:05.961Z,99466.94
2022-09-03T02:03:44.936Z,99465.48
2022-09-03T02:04:23.728Z,99463.95
2022-09-03T02:05:09.149Z,99469.03
2022-09-03T02:05:44.358Z,99464.87
2022-09-03T02:06:20.982Z,99466.50
2022-09-03T02:06:57.774Z,99465.66
2022-09-03T02:07:41.443Z,99468.46
2022-09-03T02:08:14.685Z,99467.20
2022-09-03T02:08:48.154Z,99462.60
2022-09-03T02:09:21.779Z,99463.06
2022-09-03T02:09:55.029Z,99461.88
2022-09-03T02:10:43.387Z,99461.98
2022-09-03T02:11:17.010Z,99460.60
2022-09-03T02:11:56.197Z,99461.05
2022-09-03T02:12:34.003Z,99464.63
2022-09-03T02:13:10.825Z,99462.44
2022-09-03T02:13:55.297Z,99466.10
2022-09-03T02:14:30.501Z,99468.62
2022-09-03T02:15:07.532Z,99464.10
2022-09-03T02:15:48.280Z,99466.66
2022-09-03T02:16:26.034Z,99465.25
2022-09-03T02:17:01.479Z,99468.23
2022-09-03T02:17:36.037Z,99468.28
2022-09-03T02:18:22.719Z,99467.71
2022-09-03T02:19:08.351Z,99463.13
2022-09-03T02:19:41.781Z,99466.77
2022-09-03T02:20:20.432Z,99466.82
2022-09-03T02:20:55.032Z,99463.08
2022-09-03T02:21:34.927Z,99462.92
2022-09-03T02:22:08.349Z,99464.52
2022-09-03T02:22:42.947Z,99462.56
2022-09-03T02:23:17.305Z,99461.75
2022-09-03T02:23:50.829Z,99460.88
2022-09-03T02:24:26.455Z,99458.20
2022-09-03T02:25:00.536Z,99455.41
2022-09-03T02:25:39.801Z,99459.44
2022-09-03T02:26:16.505Z,99458.73
2022-09-03T02:26:50.143Z,99455.62
2022-09-03T02:27:23.449Z,99457.31
2022-09-03T02:27:56.829Z,99455.96
2022-09-03T02:28:32.680Z,99454.91
2022-09-03T02:29:06.247Z,99455.40
2022-09-03T02:29:39.353Z,99456.62
2022-09-03T02:30:13.119Z,99454.27
2022-09-03T02:30:46.499Z,99453.94
2022-09-03T02:31:20.155Z,99454.70
2022-09-03T02:31:53.302Z,99452.80
2022-09-03T02:32:27.185Z,99456.49
2022-09-03T02:33:00.764Z,99450.86
2022-09-03T02:33:38.983Z,99451.31
2022-09-03T02:34:12.442Z,99455.98
2022-09-03T02:34:45.733Z,99454.14
2022-09-03T02:35:18.908Z,99452.80
2022-09-03T02:35:52.671Z,99453.25
2022-09-03T02:36:30.800Z,99454.48
2022-09-03T02:37:13.992Z,99453.20
2022-09-03T02:37:47.183Z,99455.64
2022-09-03T02:38:26.110Z,99459.95
2022-09-03T02:38:59.534Z,99459.50
2022-09-03T02:39:36.174Z,99458.61
2022-09-03T02:40:12.360Z,99460.73
2022-09-03T02:40:46.186Z,99461.55
2022-09-03T02:41:19.500Z,99460.94
2022-09-03T02:41:57.725Z,99463.20
2022-09-03T02:42:31.325Z,99462.76
2022-09-03T02:43:09.083Z,99461.58
2022-09-03T02:43:55.264Z,99466.60
2022-09-03T02:44:33.604Z,99464.15
2022-09-03T02:45:20.541Z,99465.41
2022-09-03T02:46:00.110Z,99466.53
2022-09-03T02:46:41.377Z,99464.95
2022-09-03T02:47:15.523Z,99468.22
2022-09-03T02:47:52.637Z,99470.10
2022-09-03T02:48:25.889Z,99469.39
2022-09-03T02:48:59.184Z,99469.55
2022-09-03T02:49:32.866Z,99468.37
2022-09-03T02:50:06.413Z,99469.50
2022-09-03T02:50:42.881Z,99465.64
2022-09-03T02:51:16.263Z,99470.55
2022-09-03T02:51:49.473Z,99470.52
2022-09-03T02:52:22.654Z,99472.23
2022-09-03T02:52:56.162Z,99470.29
2022-09-03T02:53:29.362Z,99468.95
2022-09-03T02:54:03.141Z,99470.48
2022-09-03T02:54:40.115Z,99467.84
2022-09-03T02:55:13.435Z,99469.11
2022-09-03T02:55:47.694Z,99470.20
2022-09-03T02:56:20.852Z,99471.55
2022-09-03T02:56:54.878Z,99472.65
2022-09-03T02:57:28.857Z,99466.17
2022-09-03T02:58:02.054Z,99474.96
2022-09-03T02:58:35.429Z,99473.57
2022-09-03T02:59:09.853Z,99473.94
2022-09-03T02:59:47.269Z,99474.73
2022-09-03T03:00:20.364Z,99475.36
2022-09-03T03:00:54.471Z,99475.49
2022-09-03T03:01:28.111Z,99476.11
2022-09-03T03:02:02.576Z,99474.70
2022-09-03T03:02:35.856Z,99478.85
2022-09-03T03:03:09.106Z,99476.08
2022-09-03T03:03:42.367Z,99476.98
2022-09-03T03:04:16.099Z,99477.10
2022-09-03T03:04:49.688Z,99474.98
2022-09-03T03:05:30.401Z,99474.70
2022-09-03T03:06:06.283Z,99480.38
2022-09-03T03:06:39.402Z,99472.60
2022-09-03T03:07:12.563Z,99474.39
2022-09-03T03:07:45.804Z,99477.77
2022-09-03T03:08:24.103Z,99477.11
2022-09-03T03:08:57.424Z,99476.38
2022-09-03T03:09:30.607Z,99478.64
2022-09-03T03:10:04.685Z,99476.65
2022-09-03T03:10:38.964Z,99477.95
2022-09-03T03:11:12.100Z,99477.86
2022-09-03T03:11:45.563Z,99478.48
2022-09-03T03:12:19.638Z,99475.89
2022-09-03T03:12:52.798Z,99480.81
2022-09-03T03:13:27.459Z,99477.77
2022-09-03T03:14:00.771Z,99477.43
2022-09-03T03:14:34.016Z,99478.69
2022-09-03T03:15:07.588Z,99477.27
2022-09-03T03:15:40.732Z,99476.98
2022-09-03T03:16:16.103Z,99479.95
2022-09-03T03:16:50.585Z,99477.30
2022-09-03T03:17:24.042Z,99477.27
2022-09-03T03:17:57.806Z,99478.48
2022-09-03T03:18:31.075Z,99474.98
2022-09-03T03:19:04.489Z,99476.38
2022-09-03T03:19:37.974Z,99475.36
2022-09-03T03:20:11.416Z,99475.68
2022-09-03T03:20:44.774Z,99476.28
2022-09-03T03:21:19.429Z,99474.70
2022-09-03T03:21:52.586Z,99478.16
2022-09-03T03:22:25.750Z,99478.04
2022-09-03T03:22:58.994Z,99476.90
2022-09-03T03:23:33.515Z,99475.36
2022-09-03T03:24:07.394Z,99474.14
2022-09-03T03:24:41.082Z,99476.73
2022-09-03T03:25:14.666Z,99478.23
2022-09-03T03:25:49.085Z,99474.29
2022-09-03T03:26:23.454Z,99476.33
2022-09-03T03:27:00.330Z,99477.11
2022-09-03T03:27:33.603Z,99477.44
2022-09-03T03:28:07.533Z,99474.42
2022-09-03T03:28:42.669Z,99471.30
2022-09-03T03:29:18.089Z,99469.84
2022-09-03T03:29:51.250Z,99473.52
2022-09-03T03:30:24.623Z,99474.06
2022-09-03T03:30:58.103Z,99471.27
2022-09-03T03:31:32.135Z,99471.91
2022-09-03T03:32:05.482Z,99471.91
2022-09-03T03:32:38.723Z,99469.38
2022-09-03T03:33:11.974Z,99468.04
2022-09-03T03:33:45.926Z,99469.55
2022-09-03T03:34:19.271Z,99471.02
2022-09-03T03:34:52.370Z,99468.53
2022-09-03T03:35:25.812Z,99467.55
2022-09-03T03:35:59.415Z,99467.59
2022-09-03T03:36:34.284Z,99467.75
2022-09-03T03:37:07.570Z,99468.77
2022-09-03T03:37:41.396Z,99469.55
2022-09-03T03:38:14.723Z,99469.52
2022-09-03T03:38:47.882Z,99470.54
2022-09-03T03:39:21.433Z,99467.48
2022-09-03T03:39:54.760Z,99470.35
2022-09-03T03:40:28.573Z,99470.77
2022-09-03T03:41:10.210Z,99467.35
2022-09-03T03:41:43.357Z,99468.73
2022-09-03T03:42:16.592Z,99467.98
2022-09-03T03:42:50.374Z,99470.69
2022-09-03T03:43:23.543Z,99474.96
2022-09-03T03:43:58.753Z,99470.69
2022-09-03T03:44:32.033Z,99473.30
2022-09-03T03:45:06.758Z,99473.22
2022-09-03T03:45:39.985Z,99474.77
2022-09-03T03:46:15.313Z,99468.58
2022-09-03T03:46:48.591Z,99472.08
2022-09-03T03:47:21.793Z,99471.39
2022-09-03T03:47:58.644Z,99471.48
2022-09-03T03:48:32.743Z,99470.13
2022-09-03T03:49:07.497Z,99469.59
2022-09-03T03:49:40.827Z,99472.23
2022-09-03T03:50:14.452Z,99472.00
2022-09-03T03:50:47.767Z,99471.17
2022-09-03T03:51:21.110Z,99471.38
2022-09-03T03:51:54.395Z,99472.55
2022-09-03T03:52:28.351Z,99473.16
2022-09-03T03:53:01.780Z,99471.21
2022-09-03T03:53:37.535Z,99473.71
2022-09-03T03:54:10.713Z,99472.08
2022-09-03T03:54:46.065Z,99470.44
2022-09-03T03:55:19.363Z,99473.48
2022-09-03T03:55:58.002Z,99472.30
2022-09-03T03:56:31.604Z,99471.78
2022-09-03T03:57:04.713Z,99469.78
2022-09-03T03:57:38.061Z,99471.57
2022-09-03T03:58:11.174Z,99474.05
2022-09-03T03:58:44.598Z,99470.29
2022-09-03T03:59:17.796Z,99472.97
2022-09-03T03:59:51.119Z,99471.67
2022-09-03T04:00:24.714Z,99470.73
2022-09-03T04:01:12.789Z,99468.45
2022-09-03T04:01:46.235Z,99470.93
2022-09-03T04:02:19.678Z,99466.81
2022-09-03T04:02:53.287Z,99469.75
2022-09-03T04:03:26.532Z,99468.58
2022-09-03T04:04:00.664Z,99468.58
2022-09-03T04:04:34.251Z,99469.95
2022-09-03T04:05:07.907Z,99468.33
2022-09-03T04:05:46.240Z,99465.36
2022-09-03T04:06:22.235Z,99466.61
2022-09-03T04:06:55.377Z,99467.06
2022-09-03T04:07:28.556Z,99465.31
2022-09-03T04:08:03.026Z,99467.47
2022-09-03T04:08:41.977Z,99464.25
2022-09-03T04:09:15.066Z,99467.67
2022-09-03T04:09:48.278Z,99467.63
2022-09-03T04:10:21.348Z,99465.95
2022-09-03T04:10:54.944Z,99465.89
2022-09-03T04:11:28.285Z,99465.84
2022-09-03T04:12:02.329Z,99469.02
2022-09-03T04:12:35.692Z,99468.92
2022-09-03T04:13:08.798Z,99471.77
2022-09-03T04:13:44.276Z,99469.66
2022-09-03T04:14:20.749Z,99468.96
2022-09-03T04:14:53.889Z,99469.49
2022-09-03T04:15:27.056Z,99470.40
2022-09-03T04:16:03.458Z,99472.44
2022-09-03T04:16:36.564Z,99470.61
2022-09-03T04:17:09.705Z,99470.16
2022-09-03T04:17:44.500Z,99470.35
2022-09-03T04:18:17.602Z,99473.13
2022-09-03T04:18:52.929Z,99470.81
2022-09-03T04:19:26.076Z,99467.80
2022-09-03T04:19:59.169Z,99467.15
2022-09-03T04:20:32.419Z,99464.52
2022-09-03T04:21:09.924Z,99466.45
2022-09-03T04:21:43.779Z,99463.36
2022-09-03T04:22:17.462Z,99463.11
2022-09-03T04:22:52.046Z,99464.95
2022-09-03T04:23:25.588Z,99460.84
2022-09-03T04:23:59.704Z,99463.73
2022-09-03T04:24:32.888Z,99462.14
2022-09-03T04:25:06.590Z,99463.48
2022-09-03T04:25:42.120Z,99459.81
2022-09-03T04:26:18.635Z,99459.65
2022-09-03T04:26:52.186Z,99459.96
2022-09-03T04:27:25.319Z,99462.27
2022-09-03T04:27:58.815Z,99458.81
2022-09-03T04:28:33.279Z,99461.23
2022-09-03T04:29:09.621Z,99457.95
2022-09-03T04:29:42.751Z,99458.89
2022-09-03T04:30:16.269Z,99460.33
2022-09-03T04:30:50.074Z,99461.30
2022-09-03T04:31:23.546Z,99457.60
2022-09-03T04:32:15.249Z,99459.19
2022-09-03T04:32:55.337Z,99460.77
2022-09-03T04:33:28.709Z,99461.54
2022-09-03T04:34:02.180Z,99460.65
2022-09-03T04:34:35.645Z,99459.59
2022-09-03T04:35:09.356Z,99464.34
2022-09-03T04:35:43.637Z,99459.02
2022-09-03T04:36:18.361Z,99456.73
2022-09-03T04:36:52.992Z,99458.00
2022-09-03T04:37:26.501Z,99456.93
2022-09-03T04:37:59.684Z,99452.91
2022-09-03T04:38:37.805Z,99454.90
2022-09-03T04:39:10.892Z,99455.75
2022-09-03T04:39:44.144Z,99452.66
2022-09-03T04:40:17.922Z,99452.38
2022-09-03T04:40:53.982Z,99451.41
2022-09-03T04:41:29.175Z,99453.45
2022-09-03T04:42:04.673Z,99452.22
2022-09-03T04:42:37.728Z,99448.67
2022-09-03T04:43:10.895Z,99449.61
2022-09-03T04:43:45.304Z,99448.52
2022-09-03T04:44:22.637Z,99448.98
2022-09-03T04:44:55.815Z,99450.09
2022-09-03T04:45:29.166Z,99448.47
2022-09-03T04:46:16.079Z,99448.84
2022-09-03T04:46:51.023Z,99449.01
2022-09-03T04:47:24.188Z,99451.52
2022-09-03T04:48:06.370Z,99454.26
2022-09-03T04:48:40.034Z,99453.71
2022-09-03T04:49:13.218Z,99456.95
2022-09-03T04:49:47.415Z,99453.02
2022-09-03T04:50:20.681Z,99451.96
2022-09-03T04:50:55.344Z,99454.52
2022-09-03T04:51:33.063Z,99448.67
2022-09-03T04:52:06.364Z,99452.13
2022-09-03T04:52:39.771Z,99450.25
2022-09-03T04:53:12.924Z,99451.20
2022-09-03T04:53:49.266Z,99449.52
2022-09-03T04:54:22.425Z,99451.80
2022-09-03T04:55:02.636Z,99451.70
2022-09-03T04:55:37.284Z,99452.16
2022-09-03T04:56:21.590Z,99449.04
2022-09-03T04:56:54.759Z,99449.44
2022-09-03T04:57:34.539Z,99449.79
2022-09-03T04:58:08.320Z,99449.80
2022-09-03T04:58:44.352Z,99452.48
2022-09-03T04:59:17.547Z,99451.55
2022-09-03T04:59:50.789Z,99451.39
2022-09-03T05:00:23.969Z,99453.06
2022-09-03T05:00:57.643Z,99450.48
2022-09-03T05:01:33.137Z,99449.31
2022-09-03T05:02:06.560Z,99444.10
2022-09-03T05:02:40.743Z,99447.77
2022-09-03T05:03:13.903Z,99451.46
2022-09-03T05:03:47.622Z,99450.73
2022-09-03T05:04:20.936Z,99449.31
2022-09-03T05:04:54.457Z,99452.60
2022-09-03T05:05:27.723Z,99447.02
2022-09-03T05:06:01.014Z,99451.13
2022-09-03T05:06:35.181Z,99450.84
2022-09-03T05:07:08.721Z,99449.59
2022-09-03T05:07:42.106Z,99450.80
2022-09-03T05:08:15.377Z,99450.45
2022-09-03T05:08:50.300Z,99453.94
2022-09-03T05:09:23.774Z,99451.95
2022-09-03T05:09:57.307Z,99452.13
2022-09-03T05:10:31.301Z,99453.80
2022-09-03T05:11:06.580Z,99451.33
2022-09-03T05:11:39.767Z,99452.86
2022-09-03T05:12:13.403Z,99451.23
2022-09-03T05:12:50.128Z,99451.85
2022-09-03T05:13:23.443Z,99455.67
2022-09-03T05:13:59.309Z,99455.70
2022-09-03T05:14:32.623Z,99456.30
2022-09-03T05:15:06.858Z,99453.38
2022-09-03T05:15:45.699Z,99454.20
2022-09-03T05:16:20.102Z,99456.67
2022-09-03T05:16:53.641Z,99455.08
2022-09-03T05:17:28.070Z,99459.66
2022-09-03T05:18:02.782Z,99461.30
2022-09-03T05:18:37.166Z,99458.87
2022-09-03T05:19:11.159Z,99459.70
2022-09-03T05:19:45.037Z,99458.27
2022-09-03T05:20:18.461Z,99460.69
2022-09-03T05:21:02.538Z,99461.60
2022-09-03T05:21:36.804Z,99460.27
2022-09-03T05:22:09.978Z,99462.23
2022-09-03T05:22:43.452Z,99459.67
2022-09-03T05:23:16.759Z,99461.63
2022-09-03T05:23:51.467Z,99463.08
2022-09-03T05:24:25.264Z,99460.52
2022-09-03T05:24:58.470Z,99460.15
2022-09-03T05:25:35.075Z,99461.95
2022-09-03T05:26:13.603Z,99462.17
2022-09-03T05:26:47.227Z,99459.00
2022-09-03T05:27:20.413Z,99463.08
2022-09-03T05:27:54.594Z,99460.53
2022-09-03T05:28:30.129Z,99460.95
2022-09-03T05:29:08.292Z,99457.29
2022-09-03T05:29:41.400Z,99455.88
2022-09-03T05:30:14.636Z,99456.09
2022-09-03T05:30:48.026Z,99451.91
2022-09-03T05:31:22.751Z,99455.30
2022-09-03T05:31:56.076Z,99453.16
2022-09-03T05:32:31.902Z,99454.76
2022-09-03T05:33:06.438Z,99453.48
2022-09-03T05:33:44.403Z,99453.83
2022-09-03T05:34:18.424Z,99452.96
2022-09-03T05:34:51.938Z,99452.89
2022-09-03T05:35:27.865Z,99452.38
2022-09-03T05:36:09.007Z,99455.67
2022-09-03T05:36:42.274Z,99455.05
2022-09-03T05:37:15.784Z,99455.80
2022-09-03T05:37:49.233Z,99458.68
2022-09-03T05:38:22.497Z,99457.13
2022-09-03T05:38:58.446Z,99457.92
2022-09-03T05:39:32.409Z,99457.85
2022-09-03T05:40:06.818Z,99458.04
2022-09-03T05:40:41.825Z,99459.44
2022-09-03T05:41:16.957Z,99460.34
2022-09-03T05:41:53.242Z,99457.73
2022-09-03T05:42:28.670Z,99460.99
2022-09-03T05:43:06.517Z,99458.29
2022-09-03T05:43:42.569Z,99460.41
2022-09-03T05:44:15.827Z,99462.13
2022-09-03T05:44:49.938Z,99462.77
2022-09-03T05:45:23.659Z,99463.95
2022-09-03T05:46:01.628Z,99462.66
2022-09-03T05:46:38.359Z,99463.58
2022-09-03T05:47:11.684Z,99462.59
2022-09-03T05:47:45.419Z,99463.00
2022-09-03T05:48:18.995Z,99462.31
2022-09-03T05:48:52.411Z,99464.23
2022-09-03T05:49:25.855Z,99465.91
2022-09-03T05:49:59.109Z,99464.04
2022-09-03T05:50:32.365Z,99463.23
2022-09-03T05:51:11.955Z,99462.88
2022-09-03T05:51:46.621Z,99464.34
2022-09-03T05:52:22.017Z,99463.89
2022-09-03T05:52:55.273Z,99461.45
2022-09-03T05:53:29.635Z,99465.11
2022-09-03T05:54:04.274Z,99463.05
2022-09-03T05:54:37.590Z,99464.30
2022-09-03T05:55:13.478Z,99464.69
2022-09-03T05:55:56.256Z,99463.41
2022-09-03T05:56:31.005Z,99466.52
2022-09-03T05:57:04.944Z,99464.08
2022-09-03T05:57:38.602Z,99467.86
2022-09-03T05:58:11.788Z,99465.19
2022-09-03T05:58:48.382Z,99465.42
2022-09-03T05:59:21.544Z,99466.48
2022-09-03T05:59:54.807Z,99468.00
2022-09-03T06:00:28.179Z,99469.95
2022-09-03T06:01:30.009Z,99469.66
2022-09-03T06:02:03.391Z,99467.46
2022-09-03T06:02:36.635Z,99468.52
2022-09-03T06:03:10.163Z,99469.79
2022-09-03T06:03:45.374Z,99469.58
2022-09-03T06:04:19.522Z,99467.02
2022-09-03T06:04:52.908Z,99464.81
2022-09-03T06:05:26.063Z,99466.40
2022-09-03T06:05:59.091Z,99463.51
2022-09-03T06:06:35.653Z,99460.98
2022-09-03T06:07:09.239Z,99461.56
2022-09-03T06:07:42.714Z,99465.93
2022-09-03T06:08:15.930Z,99458.29
2022-09-03T06:08:49.379Z,99454.58
2022-09-03T06:09:23.664Z,99459.75
2022-09-03T06:09:57.305Z,99456.55
2022-09-03T06:10:38.792Z,99458.75
2022-09-03T06:11:14.230Z,99459.16
2022-09-03T06:11:50.107Z,99459.57
2022-09-03T06:12:23.727Z,99457.28
2022-09-03T06:13:04.109Z,99458.58
2022-09-03T06:13:37.819Z,99463.44
2022-09-03T06:14:13.369Z,99457.65
2022-09-03T06:14:46.615Z,99460.99
2022-09-03T06:15:19.831Z,99460.83
2022-09-03T06:16:04.361Z,99456.59
2022-09-03T06:16:43.044Z,99456.69
2022-09-03T06:17:16.464Z,99456.58
2022-09-03T06:17:50.052Z,99458.05
2022-09-03T06:18:23.319Z,99456.73
2022-09-03T06:18:56.822Z,99457.30
2022-09-03T06:19:29.998Z,99457.74
2022-09-03T06:20:03.576Z,99457.89
2022-09-03T06:20:37.452Z,99453.49
2022-09-03T06:21:10.808Z,99458.42
2022-09-03T06:21:47.610Z,99453.41
2022-09-03T06:22:20.695Z,99456.95
2022-09-03T06:22:53.898Z,99450.89
2022-09-03T06:23:28.580Z,99454.68
2022-09-03T06:24:03.248Z,99451.20
2022-09-03T06:24:37.211Z,99457.77
2022-09-03T06:25:11.498Z,99455.63
2022-09-03T06:25:44.897Z,99454.65
2022-09-03T06:26:20.199Z,99454.15
2022-09-03T06:26:53.985Z,99454.69
2022-09-03T06:27:29.613Z,99459.42
2022-09-03T06:28:03.040Z,99460.01
2022-09-03T06:28:39.165Z,99462.75
2022-09-03T06:29:13.354Z,99462.31
2022-09-03T06:29:46.554Z,99463.38
2022-09-03T06:30:20.856Z,99463.00
2022-09-03T06:30:54.858Z,99467.27
2022-09-03T06:31:28.677Z,99465.83
2022-09-03T06:32:05.255Z,99467.30
2022-09-03T06:32:48.315Z,99467.25
2022-09-03T06:33:22.506Z,99467.81
2022-09-03T06:34:00.802Z,99471.06
2022-09-03T06:34:37.613Z,99469.45
2022-09-03T06:35:12.069Z,99469.38
2022-09-03T06:35:47.379Z,99475.55
2022-09-03T06:36:23.183Z,99473.35
2022-09-03T06:36:57.026Z,99473.19
2022-09-03T06:37:31.512Z,99472.53
2022-09-03T06:38:05.610Z,99475.22
2022-09-03T06:38:40.970Z,99476.84
2022-09-03T06:39:15.253Z,99479.39
2022-09-03T06:39:51.341Z,99482.04
2022-09-03T06:40:27.036Z,99478.60
2022-09-03T06:41:05.360Z,99481.21
2022-09-03T06:41:40.602Z,99481.11
2022-09-03T06:42:15.300Z,99478.14
2022-09-03T06:43:03.772Z,99480.09
2022-09-03T06:43:41.195Z,99481.33
2022-09-03T06:44:15.789Z,99483.60
2022-09-03T06:44:50.430Z,99484.14
2022-09-03T06:45:24.646Z,99485.36
2022-09-03T06:46:01.581Z,99488.25
2022-09-03T06:46:39.640Z,99485.08
2022-09-03T06:47:14.207Z,99484.73
2022-09-03T06:47:48.269Z,99488.21
2022-09-03T06:48:22.251Z,99485.69
2022-09-03T06:48:56.632Z,99486.69
2022-09-03T06:49:32.249Z,99486.02
2022-09-03T06:50:07.204Z,99485.01
2022-09-03T06:50:41.127Z,99489.20
2022-09-03T06:51:21.860Z,99483.95
2022-09-03T06:51:56.296Z,99486.30
2022-09-03T06:52:39.036Z,99487.69
2022-09-03T06:53:13.902Z,99483.55
2022-09-03T06:53:52.183Z,99487.25
2022-09-03T06:54:28.729Z,99491.20
2022-09-03T06:55:04.088Z,99489.45
2022-09-03T06:55:40.700Z,99489.00
2022-09-03T06:56:18.716Z,99489.16
2022-09-03T06:56:53.888Z,99490.42
2022-09-03T06:57:31.603Z,99491.84
2022-09-03T06:58:06.108Z,99488.65
2022-09-03T06:58:44.648Z,99491.33
2022-09-03T06:59:18.294Z,99490.48
2022-09-03T06:59:52.259Z,99488.46
2022-09-03T07:00:25.984Z,99490.61
2022-09-03T07:01:14.380Z,99492.15
2022-09-03T07:01:48.366Z,99491.73
2022-09-03T07:02:23.615Z,99490.45
2022-09-03T07:03:03.405Z,99493.59
2022-09-03T07:03:38.604Z,99495.64
2022-09-03T07:04:19.283Z,99492.87
2022-09-03T07:04:54.717Z,99492.38
2022-09-03T07:05:29.939Z,99493.54
2022-09-03T07:06:06.382Z,99492.97
2022-09-03T07:06:43.239Z,99494.64
2022-09-03T07:07:17.432Z,99501.33
2022-09-03T07:07:51.800Z,99494.11
2022-09-03T07:08:26.260Z,99493.52
2022-09-03T07:09:00.539Z,99495.34
2022-09-03T07:09:38.523Z,99492.90
2022-09-03T07:10:14.263Z,99494.79
2022-09-03T07:10:47.790Z,99494.61
2022-09-03T07:11:26.361Z,99493.98
2022-09-03T07:11:59.490Z,99493.64
2022-09-03T07:12:37.719Z,99496.25
2022-09-03T07:13:10.892Z,99497.27
2022-09-03T07:13:48.087Z,99496.27
2022-09-03T07:14:22.825Z,99497.37
2022-09-03T07:14:56.181Z,99501.41
2022-09-03T07:15:29.508Z,99497.14
2022-09-03T07:16:06.873Z,99501.38
2022-09-03T07:16:42.070Z,99499.86
2022-09-03T07:17:15.931Z,99500.65
2022-09-03T07:17:50.645Z,99496.77
2022-09-03T07:18:24.064Z,99498.92
2022-09-03T07:18:58.130Z,99499.79
2022-09-03T07:19:31.533Z,99503.89
2022-09-03T07:20:05.045Z,99504.13
2022-09-03T07:20:38.293Z,99504.58
2022-09-03T07:21:14.786Z,99503.51
2022-09-03T07:21:50.495Z,99507.12
2022-09-03T07:22:26.082Z,99503.13
2022-09-03T07:23:04.924Z,99505.30
2022-09-03T07:23:39.619Z,99502.85
2022-09-03T07:24:14.447Z,99504.02
2022-09-03T07:24:47.942Z,99502.71
2022-09-03T07:25:22.662Z,99504.10
2022-09-03T07:26:02.161Z,99505.59
2022-09-03T07:26:41.211Z,99507.80
2022-09-03T07:27:15.176Z,99506.59
2022-09-03T07:27:51.484Z,99503.42
2022-09-03T07:28:26.335Z,99507.39